sensor_id;sensor_type;location;lat;lon;timestamp;temperature;humidity
63960;DHT22;50136;51.374;0.096;2022-11-21T00:02:42;6.00;99.90
63960;DHT22;50136;51.374;0.096;2022-11-21T00:12:45;6.10;99.90
63960;DHT22;50136;51.374;0.096;2022-11-21T00:22:47;6.20;99.90
63960;DHT22;50136;51.374;0.096;2022-11-21T00:32:51;6.30;99.90
63960;DHT22;50136;51.374;0.096;2022-11-21T00:42:53;6.40;99.90
63960;DHT22;50136;51.374;0.096;2022-11-21T00:52:56;6.30;99.90
63960;DHT22;50136;51.374;0.096;2022-11-21T01:02:58;6.20;99.90
63960;DHT22;50136;51.374;0.096;2022-11-21T01:13:03;6.20;99.90
63960;DHT22;50136;51.374;0.096;2022-11-21T01:23:05;6.00;99.90
63960;DHT22;50136;51.374;0.096;2022-11-21T01:33:08;6.00;99.90
63960;DHT22;50136;51.374;0.096;2022-11-21T01:43:11;6.10;99.90
63960;DHT22;50136;51.374;0.096;2022-11-21T01:53:16;6.10;99.90
63960;DHT22;50136;51.374;0.096;2022-11-21T02:03:20;6.10;99.90
63960;DHT22;50136;51.374;0.096;2022-11-21T02:13:26;6.20;99.90
63960;DHT22;50136;51.374;0.096;2022-11-21T02:23:34;6.20;99.90
63960;DHT22;50136;51.374;0.096;2022-11-21T02:33:41;6.20;99.90
63960;DHT22;50136;51.374;0.096;2022-11-21T02:43:46;6.00;99.90
63960;DHT22;50136;51.374;0.096;2022-11-21T02:53:52;6.00;99.90
63960;DHT22;50136;51.374;0.096;2022-11-21T03:03:54;5.80;99.90
63960;DHT22;50136;51.374;0.096;2022-11-21T03:13:58;5.80;99.90
63960;DHT22;50136;51.374;0.096;2022-11-21T03:24:00;5.80;99.90
63960;DHT22;50136;51.374;0.096;2022-11-21T03:34:03;5.70;99.90
63960;DHT22;50136;51.374;0.096;2022-11-21T03:44:06;5.60;99.90
63960;DHT22;50136;51.374;0.096;2022-11-21T03:54:10;5.60;99.90
63960;DHT22;50136;51.374;0.096;2022-11-21T04:04:12;5.50;99.90
63960;DHT22;50136;51.374;0.096;2022-11-21T04:14:15;5.40;99.90
63960;DHT22;50136;51.374;0.096;2022-11-21T04:24:17;5.20;99.90
63960;DHT22;50136;51.374;0.096;2022-11-21T04:34:20;5.00;99.90
63960;DHT22;50136;51.374;0.096;2022-11-21T04:44:22;5.00;99.90
63960;DHT22;50136;51.374;0.096;2022-11-21T04:54:26;4.90;99.90
63960;DHT22;50136;51.374;0.096;2022-11-21T05:04:28;4.90;99.90
63960;DHT22;50136;51.374;0.096;2022-11-21T05:14:32;4.70;99.90
63960;DHT22;50136;51.374;0.096;2022-11-21T05:24:34;4.70;99.90
63960;DHT22;50136;51.374;0.096;2022-11-21T05:34:37;4.70;99.90
63960;DHT22;50136;51.374;0.096;2022-11-21T05:44:39;4.70;99.90
63960;DHT22;50136;51.374;0.096;2022-11-21T05:54:43;4.80;99.90
63960;DHT22;50136;51.374;0.096;2022-11-21T06:04:47;4.90;99.90
63960;DHT22;50136;51.374;0.096;2022-11-21T06:14:50;5.00;99.90
63960;DHT22;50136;51.374;0.096;2022-11-21T06:24:52;5.20;99.90
63960;DHT22;50136;51.374;0.096;2022-11-21T06:34:55;5.30;99.90
63960;DHT22;50136;51.374;0.096;2022-11-21T06:44:57;5.50;99.90
63960;DHT22;50136;51.374;0.096;2022-11-21T06:55:00;5.50;99.90
63960;DHT22;50136;51.374;0.096;2022-11-21T07:05:02;5.70;99.90
63960;DHT22;50136;51.374;0.096;2022-11-21T07:15:07;5.80;99.90
63960;DHT22;50136;51.374;0.096;2022-11-21T07:25:09;6.10;99.90
63960;DHT22;50136;51.374;0.096;2022-11-21T07:35:12;6.10;99.90
63960;DHT22;50136;51.374;0.096;2022-11-21T07:45:15;6.20;99.90
63960;DHT22;50136;51.374;0.096;2022-11-21T07:55:18;6.20;99.90
63960;DHT22;50136;51.374;0.096;2022-11-21T08:05:20;6.40;99.90
63960;DHT22;50136;51.374;0.096;2022-11-21T08:15:24;6.60;99.90
63960;DHT22;50136;51.374;0.096;2022-11-21T08:25:26;6.90;99.90
63960;DHT22;50136;51.374;0.096;2022-11-21T08:35:29;7.00;99.90
63960;DHT22;50136;51.374;0.096;2022-11-21T08:45:31;7.10;99.90
63960;DHT22;50136;51.374;0.096;2022-11-21T08:55:35;7.20;99.90
63960;DHT22;50136;51.374;0.096;2022-11-21T09:05:37;7.20;99.90
63960;DHT22;50136;51.374;0.096;2022-11-21T09:15:40;7.30;99.90
63960;DHT22;50136;51.374;0.096;2022-11-21T09:25:43;7.40;99.90
63960;DHT22;50136;51.374;0.096;2022-11-21T09:35:46;7.70;99.90
63960;DHT22;50136;51.374;0.096;2022-11-21T09:45:49;7.80;99.90
63960;DHT22;50136;51.374;0.096;2022-11-21T09:55:57;7.90;99.90
63960;DHT22;50136;51.374;0.096;2022-11-21T10:06:03;7.90;99.90
63960;DHT22;50136;51.374;0.096;2022-11-21T10:16:12;7.90;99.90
63960;DHT22;50136;51.374;0.096;2022-11-21T10:26:21;8.00;99.90
63960;DHT22;50136;51.374;0.096;2022-11-21T10:36:27;8.10;99.90
63960;DHT22;50136;51.374;0.096;2022-11-21T10:46:31;8.30;99.90
63960;DHT22;50136;51.374;0.096;2022-11-21T10:56:34;8.40;99.90
63960;DHT22;50136;51.374;0.096;2022-11-21T11:06:39;8.50;99.90
63960;DHT22;50136;51.374;0.096;2022-11-21T11:16:45;8.60;99.90
63960;DHT22;50136;51.374;0.096;2022-11-21T11:26:52;8.70;99.90
63960;DHT22;50136;51.374;0.096;2022-11-21T11:37:10;8.70;99.90
63960;DHT22;50136;51.374;0.096;2022-11-21T11:47:16;8.70;99.90
63960;DHT22;50136;51.374;0.096;2022-11-21T11:57:21;8.80;99.90
63960;DHT22;50136;51.374;0.096;2022-11-21T12:07:25;9.00;99.90
63960;DHT22;50136;51.374;0.096;2022-11-21T12:17:59;9.20;99.90
63960;DHT22;50136;51.374;0.096;2022-11-21T12:28:17;9.30;99.90
63960;DHT22;50136;51.374;0.096;2022-11-21T12:38:43;9.40;99.90
63960;DHT22;50136;51.374;0.096;2022-11-21T12:48:55;9.40;99.90
63960;DHT22;50136;51.374;0.096;2022-11-21T12:59:02;9.20;99.90
63960;DHT22;50136;51.374;0.096;2022-11-21T13:09:08;9.10;99.90
63960;DHT22;50136;51.374;0.096;2022-11-21T13:19:22;9.00;99.90
63960;DHT22;50136;51.374;0.096;2022-11-21T13:29:25;8.80;99.90
63960;DHT22;50136;51.374;0.096;2022-11-21T13:39:30;8.50;99.90
63960;DHT22;50136;51.374;0.096;2022-11-21T13:49:38;8.10;99.90
63960;DHT22;50136;51.374;0.096;2022-11-21T13:59:57;7.90;99.90
63960;DHT22;50136;51.374;0.096;2022-11-21T14:10:04;7.70;99.90
63960;DHT22;50136;51.374;0.096;2022-11-21T14:20:22;7.60;99.90
63960;DHT22;50136;51.374;0.096;2022-11-21T14:30:30;7.60;99.90
63960;DHT22;50136;51.374;0.096;2022-11-21T14:40:33;7.50;99.90
63960;DHT22;50136;51.374;0.096;2022-11-21T14:50:36;7.50;99.90
63960;DHT22;50136;51.374;0.096;2022-11-21T15:00:39;7.60;99.90
63960;DHT22;50136;51.374;0.096;2022-11-21T15:11:01;7.60;99.90
63960;DHT22;50136;51.374;0.096;2022-11-21T15:21:05;7.70;99.90
63960;DHT22;50136;51.374;0.096;2022-11-21T15:31:17;7.80;99.90
63960;DHT22;50136;51.374;0.096;2022-11-21T15:41:39;7.80;99.90
63960;DHT22;50136;51.374;0.096;2022-11-21T15:51:42;7.90;99.90
63960;DHT22;50136;51.374;0.096;2022-11-21T16:02:10;8.10;99.90
63960;DHT22;50136;51.374;0.096;2022-11-21T16:12:12;8.20;99.90
63960;DHT22;50136;51.374;0.096;2022-11-21T16:22:16;8.30;99.90
63960;DHT22;50136;51.374;0.096;2022-11-21T16:32:18;8.40;99.90
63960;DHT22;50136;51.374;0.096;2022-11-21T16:42:21;8.50;99.90
63960;DHT22;50136;51.374;0.096;2022-11-21T16:52:23;8.60;99.90
63960;DHT22;50136;51.374;0.096;2022-11-21T17:02:26;8.70;99.90
63960;DHT22;50136;51.374;0.096;2022-11-21T17:12:28;8.60;99.90
63960;DHT22;50136;51.374;0.096;2022-11-21T17:22:32;8.20;99.90
63960;DHT22;50136;51.374;0.096;2022-11-21T17:32:35;8.00;99.90
63960;DHT22;50136;51.374;0.096;2022-11-21T17:42:38;7.80;99.90
63960;DHT22;50136;51.374;0.096;2022-11-21T17:52:40;7.80;99.90
63960;DHT22;50136;51.374;0.096;2022-11-21T18:02:43;7.80;99.90
63960;DHT22;50136;51.374;0.096;2022-11-21T18:29:36;7.80;99.90
63960;DHT22;50136;51.374;0.096;2022-11-21T18:39:38;8.00;99.90
63960;DHT22;50136;51.374;0.096;2022-11-21T18:49:41;8.00;99.90
63960;DHT22;50136;51.374;0.096;2022-11-21T18:59:43;8.10;99.90
63960;DHT22;50136;51.374;0.096;2022-11-21T19:09:47;8.00;99.90
63960;DHT22;50136;51.374;0.096;2022-11-21T19:19:49;7.80;99.90
63960;DHT22;50136;51.374;0.096;2022-11-21T19:29:52;7.50;99.90
63960;DHT22;50136;51.374;0.096;2022-11-21T19:39:54;7.30;99.90
63960;DHT22;50136;51.374;0.096;2022-11-21T19:49:58;7.10;99.90
63960;DHT22;50136;51.374;0.096;2022-11-21T20:00:00;7.00;99.90
63960;DHT22;50136;51.374;0.096;2022-11-21T20:10:03;6.90;99.90
63960;DHT22;50136;51.374;0.096;2022-11-21T20:20:07;6.80;99.90
63960;DHT22;50136;51.374;0.096;2022-11-21T20:30:11;6.80;99.90
63960;DHT22;50136;51.374;0.096;2022-11-21T20:40:13;6.60;99.90
63960;DHT22;50136;51.374;0.096;2022-11-21T20:50:16;6.50;99.90
63960;DHT22;50136;51.374;0.096;2022-11-21T21:00:39;6.40;99.90
63960;DHT22;50136;51.374;0.096;2022-11-21T21:10:42;6.40;99.90
63960;DHT22;50136;51.374;0.096;2022-11-21T21:21:05;6.30;99.90
63960;DHT22;50136;51.374;0.096;2022-11-21T21:31:20;6.20;99.90
63960;DHT22;50136;51.374;0.096;2022-11-21T21:41:23;6.20;99.90
63960;DHT22;50136;51.374;0.096;2022-11-21T21:51:28;6.20;99.90
63960;DHT22;50136;51.374;0.096;2022-11-21T22:01:31;6.00;99.90
63960;DHT22;50136;51.374;0.096;2022-11-21T22:11:36;5.90;99.90
63960;DHT22;50136;51.374;0.096;2022-11-21T22:21:38;5.90;99.90
63960;DHT22;50136;51.374;0.096;2022-11-21T22:31:42;5.80;99.90
63960;DHT22;50136;51.374;0.096;2022-11-21T22:41:44;5.60;99.90
63960;DHT22;50136;51.374;0.096;2022-11-21T22:51:47;5.50;99.90
63960;DHT22;50136;51.374;0.096;2022-11-21T23:01:49;5.40;99.90
63960;DHT22;50136;51.374;0.096;2022-11-21T23:11:52;5.50;99.90
63960;DHT22;50136;51.374;0.096;2022-11-21T23:21:54;5.50;99.90
63960;DHT22;50136;51.374;0.096;2022-11-21T23:31:58;5.40;99.90
63960;DHT22;50136;51.374;0.096;2022-11-21T23:42:00;5.30;99.90
63960;DHT22;50136;51.374;0.096;2022-11-21T23:52:03;5.20;99.90
